Time;durP1;ratioP1;P1;durP2;ratioP2;P2;SDS_P1;SDS_P2;PMS_P1;PMS_P2;Temp;Humidity;BMP_temperature;BMP_pressure;BME280_temperature;BME280_humidity;BME280_pressure;Samples;Min_cycle;Max_cycle;Signal;HPM_P1;HPM_P2
2023/08/06 00:02:02;;;;;;;;;0.00;0.00;;;;;15.82;100.00;100835.28;5084138;27;45417;-71
2023/08/06 00:04:27;;;;;;;;;1.00;0.00;;;;;15.82;100.00;100837.94;5090701;27;45288;-71
2023/08/06 00:06:52;;;;;;;;;0.33;0.00;;;;;15.84;100.00;100837.81;5079288;27;49869;-71
2023/08/06 00:09:18;;;;;;;;;0.00;0.00;;;;;15.89;100.00;100846.38;5080602;27;45435;-71
2023/08/06 00:11:43;;;;;;;;;0.00;0.00;;;;;15.80;100.00;100861.19;5093221;27;46020;-71
2023/08/06 00:14:09;;;;;;;;;1.00;0.00;;;;;15.74;100.00;100840.25;5088852;27;45532;-71
2023/08/06 00:16:35;;;;;;;;;0.00;0.00;;;;;15.79;100.00;100861.28;5095040;27;45466;-71
2023/08/06 00:19:00;;;;;;;;;0.00;0.00;;;;;15.77;100.00;100850.72;5083349;27;45283;-71
2023/08/06 00:21:25;;;;;;;;;0.00;0.00;;;;;15.75;100.00;100881.97;5083543;27;54065;-71
2023/08/06 00:23:52;;;;;;;;;0.67;0.00;;;;;15.71;100.00;100866.28;5096525;27;45534;-71
2023/08/06 00:26:17;;;;;;;;;0.00;0.00;;;;;15.64;100.00;100866.69;5081188;27;45246;-71
2023/08/06 00:28:42;;;;;;;;;0.00;0.00;;;;;15.69;100.00;100885.06;5093529;27;45501;-72
2023/08/06 00:31:08;;;;;;;;;0.00;0.00;;;;;15.55;100.00;100851.31;5093331;27;45264;-71
2023/08/06 00:33:33;;;;;;;;;0.00;0.00;;;;;15.69;100.00;100874.41;5087604;27;45390;-71
2023/08/06 00:35:58;;;;;;;;;0.00;0.00;;;;;15.69;100.00;100893.06;5093235;27;46332;-70
2023/08/06 00:38:24;;;;;;;;;0.00;0.00;;;;;15.69;100.00;100901.06;5085798;27;47037;-71
2023/08/06 00:40:49;;;;;;;;;0.00;0.00;;;;;15.70;100.00;100901.91;5093136;27;46010;-71
2023/08/06 00:43:14;;;;;;;;;2.00;0.00;;;;;15.68;100.00;100906.47;5089821;27;53633;-71
2023/08/06 00:45:40;;;;;;;;;0.00;0.00;;;;;15.62;100.00;100903.28;5074285;27;45480;-71
2023/08/06 00:48:07;;;;;;;;;1.00;0.00;;;;;15.61;100.00;100922.88;5093579;27;45566;-71
2023/08/06 00:50:32;;;;;;;;;0.00;0.00;;;;;15.59;100.00;100905.28;5090418;27;45326;-71
2023/08/06 00:52:58;;;;;;;;;0.00;0.00;;;;;15.59;100.00;100913.28;5077525;27;45504;-71
2023/08/06 00:55:24;;;;;;;;;0.00;0.00;;;;;15.56;100.00;100917.03;5081087;27;45362;-71
2023/08/06 00:57:51;;;;;;;;;0.00;0.00;;;;;15.51;100.00;100910.28;5090621;27;45431;-71
2023/08/06 01:00:16;;;;;;;;;0.00;0.00;;;;;15.53;100.00;100935.03;5079046;27;47902;-71
2023/08/06 01:02:42;;;;;;;;;0.00;0.00;;;;;15.48;100.00;100926.47;5087457;27;45488;-71
2023/08/06 01:05:07;;;;;;;;;0.00;0.00;;;;;15.50;100.00;100937.91;5080910;27;45336;-71
2023/08/06 01:07:51;;;;;;;;;0.00;0.00;;;;;15.48;100.00;100924.66;5088064;27;45588;-71
2023/08/06 01:10:26;;;;;;;;;1.33;0.00;;;;;15.46;100.00;100928.34;5097738;27;45521;-71
2023/08/06 01:13:04;;;;;;;;;0.00;0.00;;;;;15.46;100.00;100936.34;5090543;27;45264;-71
2023/08/06 01:15:37;;;;;;;;;3.00;0.00;;;;;15.43;100.00;100941.88;5087713;27;45432;-71
2023/08/06 01:18:03;;;;;;;;;1.33;0.00;;;;;15.35;100.00;100942.38;5094797;27;45290;-71
2023/08/06 01:20:30;;;;;;;;;0.33;0.33;;;;;15.39;100.00;100941.22;5084508;27;45237;-71
2023/08/06 01:22:55;;;;;;;;;0.00;0.00;;;;;15.38;100.00;100950.16;5074158;27;45477;-72
2023/08/06 01:25:25;;;;;;;;;0.00;0.00;;;;;15.40;100.00;100968.72;5087965;27;45441;-71
2023/08/06 01:27:56;;;;;;;;;1.00;1.00;;;;;15.34;100.00;100950.47;5091260;27;45411;-71
2023/08/06 01:30:36;;;;;;;;;1.00;1.00;;;;;15.37;100.00;100961.78;5063321;28;45441;-71
2023/08/06 01:33:05;;;;;;;;;1.00;1.00;;;;;15.40;100.00;100976.72;5074189;27;45291;-71
2023/08/06 01:35:32;;;;;;;;;1.67;1.00;;;;;15.35;100.00;100971.69;5067565;27;45424;-71
2023/08/06 01:37:58;;;;;;;;;2.67;1.33;;;;;15.34;100.00;100975.31;5073795;28;45501;-71
2023/08/06 01:40:25;;;;;;;;;2.00;1.00;;;;;15.29;100.00;100974.75;5074307;28;46464;-71
2023/08/06 01:42:50;;;;;;;;;0.67;0.67;;;;;15.36;100.00;100989.38;5066717;28;45407;-70
2023/08/06 01:45:15;;;;;;;;;3.00;2.00;;;;;15.34;100.00;100985.97;5071793;27;45398;-71
2023/08/06 01:47:40;;;;;;;;;3.00;1.33;;;;;15.26;100.00;100979.41;5076339;27;45291;-70
2023/08/06 01:50:06;;;;;;;;;3.67;2.00;;;;;15.30;100.00;100991.59;5069316;28;57788;-71
2023/08/06 01:52:31;;;;;;;;;2.00;1.33;;;;;15.29;100.00;101014.72;5070920;28;45325;-71
2023/08/06 01:54:57;;;;;;;;;2.00;1.00;;;;;15.28;100.00;100999.66;5065027;28;45593;-71
2023/08/06 01:57:22;;;;;;;;;1.00;1.00;;;;;15.29;100.00;101005.84;5068572;27;45272;-71
2023/08/06 01:59:47;;;;;;;;;2.00;2.00;;;;;15.31;100.00;101011.97;5069606;27;46363;-71
2023/08/06 02:02:13;;;;;;;;;2.00;2.00;;;;;15.23;100.00;101011.59;5066855;28;47294;-71
2023/08/06 02:04:38;;;;;;;;;2.00;1.33;;;;;15.28;100.00;101022.81;5068779;28;45198;-71
2023/08/06 02:07:04;;;;;;;;;1.67;1.67;;;;;15.13;100.00;101003.31;5067985;27;45468;-71
2023/08/06 02:09:29;;;;;;;;;2.33;2.00;;;;;15.26;100.00;101030.03;5060803;28;46045;-71
2023/08/06 02:11:54;;;;;;;;;3.00;2.00;;;;;15.25;100.00;101031.84;5066873;28;45292;-71
2023/08/06 02:14:20;;;;;;;;;3.33;1.00;;;;;15.24;100.00;101035.47;5069324;28;45286;-71
2023/08/06 02:16:45;;;;;;;;;2.33;2.00;;;;;15.18;100.00;101027.88;5073920;28;45236;-71
2023/08/06 02:19:10;;;;;;;;;2.00;2.00;;;;;15.24;100.00;101031.94;5062924;28;45796;-71
2023/08/06 02:21:35;;;;;;;;;2.00;2.00;;;;;15.23;100.00;101035.56;5060991;28;55224;-71
2023/08/06 02:24:01;;;;;;;;;2.00;2.00;;;;;15.20;100.00;101046.41;5075965;27;52169;-71
2023/08/06 02:26:27;;;;;;;;;4.00;2.67;;;;;15.24;100.00;101051.47;5065094;28;45418;-71
2023/08/06 02:28:52;;;;;;;;;3.00;2.00;;;;;15.13;100.00;101049.47;5069594;27;45552;-71
2023/08/06 02:31:17;;;;;;;;;3.33;3.00;;;;;15.09;100.00;101052.41;5058111;28;56093;-71
2023/08/06 02:33:43;;;;;;;;;2.00;2.00;;;;;15.07;100.00;101055.19;5064823;28;51716;-71
2023/08/06 02:36:08;;;;;;;;;3.00;1.33;;;;;15.05;100.00;101072.22;5070416;27;45433;-71
2023/08/06 02:38:33;;;;;;;;;2.33;2.33;;;;;15.08;100.00;101066.69;5061001;28;47942;-71
2023/08/06 02:40:59;;;;;;;;;2.00;2.00;;;;;14.95;100.00;101060.41;5078560;27;45454;-72
2023/08/06 02:43:24;;;;;;;;;1.67;1.67;;;;;15.08;100.00;101078.19;5077415;28;45378;-71
2023/08/06 02:45:49;;;;;;;;;2.00;2.00;;;;;15.04;100.00;101075.81;5075517;28;45430;-71
2023/08/06 02:48:15;;;;;;;;;3.00;3.00;;;;;15.04;100.00;101068.69;5076468;27;45378;-70
2023/08/06 02:50:41;;;;;;;;;5.33;3.33;;;;;15.09;100.00;101076.38;5067482;27;45442;-71
2023/08/06 02:53:08;;;;;;;;;3.67;2.00;;;;;15.06;100.00;101077.44;5080039;28;45342;-71
2023/08/06 02:55:34;;;;;;;;;1.67;1.67;;;;;15.08;100.00;101093.34;5071701;28;45534;-71
2023/08/06 02:58:00;;;;;;;;;4.00;2.33;;;;;15.04;100.00;101091.81;5069320;28;45471;-71
2023/08/06 03:00:26;;;;;;;;;3.00;3.00;;;;;15.07;100.00;101096.94;5071621;27;45437;-71
2023/08/06 03:02:51;;;;;;;;;3.67;2.67;;;;;15.02;100.00;101094.53;5066688;27;45431;-71
2023/08/06 03:05:16;;;;;;;;;2.00;2.00;;;;;15.06;100.00;101097.88;5074273;28;45308;-71
2023/08/06 03:07:42;;;;;;;;;5.33;3.00;;;;;15.04;100.00;101095.31;5064927;27;45632;-71
2023/08/06 03:10:07;;;;;;;;;4.33;3.33;;;;;15.04;100.00;101103.31;5077375;27;45284;-71
2023/08/06 03:12:33;;;;;;;;;2.33;2.33;;;;;15.03;100.00;101106.06;5066706;27;45418;-71
2023/08/06 03:14:58;;;;;;;;;5.33;5.00;;;;;15.00;100.00;101107.09;5070547;28;45590;-71
2023/08/06 03:17:23;;;;;;;;;5.00;4.00;;;;;14.92;100.00;101096.03;5078619;28;45487;-71
2023/08/06 03:19:48;;;;;;;;;4.67;3.67;;;;;14.99;100.00;101105.38;5078500;27;45442;-70
2023/08/06 03:22:14;;;;;;;;;4.00;4.00;;;;;14.96;100.00;101102.91;5075383;27;45479;-71
2023/08/06 03:24:39;;;;;;;;;3.00;3.00;;;;;15.01;100.00;101107.97;5084557;27;45933;-71
2023/08/06 03:27:05;;;;;;;;;4.00;3.00;;;;;14.97;100.00;101111.75;5065308;28;58963;-71
2023/08/06 03:29:30;;;;;;;;;2.33;2.33;;;;;14.90;100.00;101100.63;5069412;28;45382;-71
2023/08/06 03:31:55;;;;;;;;;3.67;3.67;;;;;14.92;100.00;101105.88;5080833;27;45382;-71
2023/08/06 03:34:21;;;;;;;;;1.67;1.67;;;;;14.83;100.00;101104.59;5087699;27;55688;-71
2023/08/06 03:36:46;;;;;;;;;2.33;2.33;;;;;14.85;100.00;101115.16;5082231;27;45541;-70
2023/08/06 03:39:13;;;;;;;;;3.00;3.00;;;;;14.86;100.00;101099.09;5099251;27;52609;-70
2023/08/06 03:41:39;;;;;;;;;3.67;3.67;;;;;14.87;100.00;101115.94;5099627;27;46272;-71
2023/08/06 03:44:04;;;;;;;;;3.33;3.00;;;;;14.88;100.00;101120.31;5083164;27;45530;-70
2023/08/06 03:46:33;;;;;;;;;3.00;1.00;;;;;14.91;100.00;101121.00;5092745;27;45306;-70
2023/08/06 03:48:59;;;;;;;;;5.67;2.67;;;;;14.82;100.00;101123.34;5100995;27;45309;-70
2023/08/06 03:51:24;;;;;;;;;6.00;4.33;;;;;14.90;100.00;101121.94;5090619;27;45556;-70
2023/08/06 03:53:49;;;;;;;;;3.67;2.67;;;;;14.92;100.00;101113.84;5090868;27;46171;-70
2023/08/06 03:56:14;;;;;;;;;4.00;4.00;;;;;14.98;100.00;101126.81;5091321;27;51143;-70
2023/08/06 03:58:40;;;;;;;;;3.00;3.00;;;;;15.00;100.00;101124.88;5091625;27;47041;-70
2023/08/06 04:01:05;;;;;;;;;4.00;4.00;;;;;14.88;100.00;101110.53;5082036;27;45439;-70
2023/08/06 04:03:30;;;;;;;;;2.00;2.00;;;;;14.97;100.00;101131.28;5095711;27;45400;-71
2023/08/06 04:05:56;;;;;;;;;5.00;3.00;;;;;14.88;100.00;101129.16;5088952;27;46039;-70
2023/08/06 04:08:21;;;;;;;;;4.33;4.00;;;;;14.98;100.00;101146.31;5092536;27;46429;-70
2023/08/06 04:10:52;;;;;;;;;4.00;4.00;;;;;14.98;100.00;101151.63;5087408;27;45423;-71
2023/08/06 04:13:17;;;;;;;;;4.00;4.00;;;;;14.99;100.00;101150.66;5099395;27;45672;-70
2023/08/06 04:15:42;;;;;;;;;4.00;4.00;;;;;14.90;100.00;101147.69;5079268;27;47620;-71
2023/08/06 04:18:08;;;;;;;;;3.00;3.00;;;;;14.94;100.00;101162.56;5091578;27;45378;-70
2023/08/06 04:20:33;;;;;;;;;2.00;2.00;;;;;15.02;100.00;101184.25;5076118;27;48057;-70
2023/08/06 04:22:58;;;;;;;;;4.00;4.00;;;;;14.99;100.00;101192.41;5087149;27;45458;-71
2023/08/06 04:25:24;;;;;;;;;3.00;3.00;;;;;14.97;100.00;101184.53;5084333;27;45275;-71
2023/08/06 04:27:49;;;;;;;;;5.00;4.00;;;;;14.92;100.00;101185.78;5089926;27;45385;-71
2023/08/06 04:30:15;;;;;;;;;3.67;3.00;;;;;14.89;100.00;101186.78;5073576;27;45458;-71
2023/08/06 04:32:41;;;;;;;;;3.00;3.00;;;;;14.88;100.00;101182.44;5082154;27;45405;-71
2023/08/06 04:35:07;;;;;;;;;1.33;1.33;;;;;14.92;100.00;101202.56;5080724;27;46622;-70
2023/08/06 04:37:32;;;;;;;;;1.67;0.00;;;;;14.91;100.00;101197.34;5089230;27;45469;-71
2023/08/06 04:39:57;;;;;;;;;3.67;3.00;;;;;14.90;100.00;101214.28;5069560;27;45740;-71
2023/08/06 04:42:23;;;;;;;;;3.00;3.00;;;;;14.84;100.00;101212.84;5094174;27;45555;-71
2023/08/06 04:44:48;;;;;;;;;4.00;4.00;;;;;14.89;100.00;101215.22;5085723;27;46644;-71
2023/08/06 04:47:14;;;;;;;;;2.67;2.67;;;;;14.89;100.00;101221.41;5093871;27;45332;-71
2023/08/06 04:49:39;;;;;;;;;2.67;2.00;;;;;14.88;100.00;101224.19;5069753;27;45223;-71
2023/08/06 04:52:05;;;;;;;;;3.00;3.00;;;;;14.88;100.00;101219.72;5086195;27;45605;-70
2023/08/06 04:54:30;;;;;;;;;7.00;5.33;;;;;14.93;100.00;101228.28;5083981;27;45390;-71
2023/08/06 04:56:55;;;;;;;;;4.33;3.33;;;;;14.92;100.00;101228.38;5079572;27;52030;-71
2023/08/06 04:59:21;;;;;;;;;5.33;2.33;;;;;14.93;100.00;101233.59;5096078;27;52542;-71
2023/08/06 05:01:46;;;;;;;;;7.00;3.33;;;;;14.94;100.00;101231.81;5089153;27;45615;-71
2023/08/06 05:04:11;;;;;;;;;4.67;3.67;;;;;14.96;100.00;101237.88;5095907;27;46223;-71
2023/08/06 05:06:38;;;;;;;;;3.33;1.00;;;;;14.97;100.00;101251.13;5079945;27;45513;-71
2023/08/06 05:09:04;;;;;;;;;3.00;3.00;;;;;14.99;100.00;101245.69;5089512;27;45447;-71
2023/08/06 05:11:29;;;;;;;;;3.33;3.33;;;;;14.95;100.00;101249.50;5086489;27;45325;-71
2023/08/06 05:13:55;;;;;;;;;4.00;2.67;;;;;14.97;100.00;101252.94;5068650;28;45662;-71
2023/08/06 05:16:20;;;;;;;;;3.00;3.00;;;;;14.88;100.00;101230.38;5084080;27;45581;-71
2023/08/06 05:18:45;;;;;;;;;3.00;2.00;;;;;14.97;100.00;101261.78;5083590;27;45342;-71
2023/08/06 05:21:11;;;;;;;;;5.67;3.67;;;;;14.93;100.00;101267.38;5075926;27;45766;-71
2023/08/06 05:23:36;;;;;;;;;2.33;2.33;;;;;14.95;100.00;101268.97;5087466;27;46775;-71
2023/08/06 05:26:02;;;;;;;;;5.67;3.00;;;;;14.96;100.00;101276.03;5071430;27;45570;-71
2023/08/06 05:28:27;;;;;;;;;2.67;2.33;;;;;14.87;100.00;101252.59;5095493;27;45376;-71
2023/08/06 05:30:52;;;;;;;;;2.67;2.67;;;;;14.93;100.00;101276.22;5085570;27;45468;-71
2023/08/06 05:33:18;;;;;;;;;3.33;3.33;;;;;14.97;100.00;101282.22;5084690;27;46077;-71
2023/08/06 05:35:43;;;;;;;;;1.67;1.67;;;;;14.96;100.00;101297.34;5086657;27;45745;-71
2023/08/06 05:38:08;;;;;;;;;4.00;3.00;;;;;14.94;100.00;101293.94;5062126;27;45465;-71
2023/08/06 05:40:34;;;;;;;;;4.33;4.00;;;;;14.96;100.00;101299.16;5070497;27;45457;-71
2023/08/06 05:42:59;;;;;;;;;5.00;4.00;;;;;14.98;100.00;101316.78;5071179;27;47927;-71
2023/08/06 05:45:25;;;;;;;;;6.67;4.00;;;;;14.99;100.00;101321.16;5083167;27;45790;-71
2023/08/06 05:47:50;;;;;;;;;5.00;4.67;;;;;15.01;100.00;101313.09;5099305;27;45301;-71
2023/08/06 05:50:16;;;;;;;;;3.67;2.00;;;;;15.05;100.00;101330.63;5077206;27;46474;-71
2023/08/06 05:52:41;;;;;;;;;3.00;2.67;;;;;15.06;100.00;101334.97;5086687;27;45443;-71
2023/08/06 05:55:07;;;;;;;;;2.33;2.33;;;;;15.10;100.00;101321.41;5081958;27;45497;-71
2023/08/06 05:57:32;;;;;;;;;4.00;4.00;;;;;15.15;100.00;101321.13;5077590;27;45533;-71
2023/08/06 05:59:58;;;;;;;;;2.33;2.33;;;;;15.17;100.00;101327.22;5087093;27;45435;-71
2023/08/06 06:02:23;;;;;;;;;2.33;2.00;;;;;15.23;100.00;101328.69;5077251;27;45486;-71
2023/08/06 06:04:48;;;;;;;;;2.00;2.00;;;;;15.25;100.00;101329.47;5083355;27;45465;-71
2023/08/06 06:07:14;;;;;;;;;2.33;2.00;;;;;15.26;100.00;101339.16;5085953;27;46050;-71
2023/08/06 06:09:39;;;;;;;;;4.00;3.00;;;;;15.28;100.00;101340.78;5097030;27;45511;-71
2023/08/06 06:12:05;;;;;;;;;2.00;2.00;;;;;15.30;100.00;101346.03;5087015;27;45538;-71
2023/08/06 06:14:31;;;;;;;;;2.00;2.00;;;;;15.33;100.00;101354.72;5101131;27;45331;-71
2023/08/06 06:16:56;;;;;;;;;1.00;1.00;;;;;15.33;100.00;101359.19;5092010;27;45375;-70
2023/08/06 06:19:21;;;;;;;;;2.00;2.00;;;;;15.37;100.00;101361.59;5091949;27;45245;-71
2023/08/06 06:21:47;;;;;;;;;4.33;3.00;;;;;15.36;100.00;101364.31;5086499;27;45386;-71
2023/08/06 06:24:12;;;;;;;;;3.00;1.00;;;;;15.41;100.00;101371.09;5093199;27;45492;-71
2023/08/06 06:26:38;;;;;;;;;1.00;1.00;;;;;15.43;100.00;101365.69;5080062;27;45497;-71
2023/08/06 06:29:03;;;;;;;;;2.67;2.67;;;;;15.46;100.00;101371.72;5071544;27;45300;-70
2023/08/06 06:31:29;;;;;;;;;0.67;0.00;;;;;15.53;100.00;101383.78;5078745;27;46854;-71
2023/08/06 06:33:54;;;;;;;;;2.67;2.67;;;;;15.51;100.00;101379.47;5101737;27;45258;-71
2023/08/06 06:36:20;;;;;;;;;4.00;2.00;;;;;15.55;100.00;101389.00;5094307;27;45742;-71
2023/08/06 06:38:45;;;;;;;;;2.00;2.00;;;;;15.57;100.00;101387.13;5087828;27;45395;-71
2023/08/06 06:41:11;;;;;;;;;2.00;2.00;;;;;15.58;100.00;101391.47;5075818;28;45400;-71
2023/08/06 06:43:38;;;;;;;;;2.00;2.00;;;;;15.60;100.00;101393.13;5089937;27;45426;-71
2023/08/06 06:46:03;;;;;;;;;5.00;3.67;;;;;15.66;100.00;101394.56;5098123;27;45474;-71
2023/08/06 06:48:31;;;;;;;;;2.67;2.67;;;;;15.82;100.00;101403.38;5101635;27;45354;-71
2023/08/06 06:50:56;;;;;;;;;2.00;2.00;;;;;15.87;100.00;101397.78;5071505;27;45467;-71
2023/08/06 06:53:28;;;;;;;;;4.67;2.00;;;;;15.98;100.00;101409.53;5089548;27;46306;-71
2023/08/06 06:56:01;;;;;;;;;1.33;1.33;;;;;16.07;100.00;101414.31;5082397;27;45466;-71
2023/08/06 06:58:27;;;;;;;;;1.67;1.67;;;;;16.17;100.00;101412.78;5079637;27;45883;-71
2023/08/06 07:00:52;;;;;;;;;0.67;0.00;;;;;16.20;98.15;101414.41;5099045;27;46029;-71
2023/08/06 07:03:20;;;;;;;;;1.00;1.00;;;;;16.29;98.71;101411.22;5105728;27;51263;-70
2023/08/06 07:05:45;;;;;;;;;2.00;2.00;;;;;16.34;97.50;101418.91;5102288;27;45504;-71
2023/08/06 07:08:11;;;;;;;;;2.00;0.00;;;;;16.38;98.28;101415.09;5110742;27;45331;-71
2023/08/06 07:10:36;;;;;;;;;1.00;1.00;;;;;16.43;96.70;101413.00;5105255;27;45367;-71
2023/08/06 07:13:02;;;;;;;;;0.00;0.00;;;;;16.47;94.45;101419.88;5104662;27;45568;-71
2023/08/06 07:15:27;;;;;;;;;2.00;2.00;;;;;16.56;90.29;101424.66;5102955;27;45643;-71
2023/08/06 07:17:52;;;;;;;;;2.00;1.00;;;;;16.64;89.97;101433.09;5085429;27;45336;-71
2023/08/06 07:20:18;;;;;;;;;2.00;2.00;;;;;16.70;87.31;101440.72;5096088;27;45640;-72
2023/08/06 07:22:44;;;;;;;;;1.00;1.00;;;;;16.71;89.02;101429.09;5093368;27;45350;-71
2023/08/06 07:25:09;;;;;;;;;2.00;2.00;;;;;16.72;88.48;101440.63;5105280;27;45537;-71
2023/08/06 07:27:34;;;;;;;;;2.33;2.00;;;;;16.76;88.21;101431.44;5102067;27;54149;-71
2023/08/06 07:30:00;;;;;;;;;1.00;1.00;;;;;16.83;85.96;101436.31;5102908;27;45559;-71
2023/08/06 07:32:26;;;;;;;;;1.00;1.00;;;;;16.94;86.90;101432.97;5101459;27;45555;-71
2023/08/06 07:34:56;;;;;;;;;1.00;1.00;;;;;16.81;80.71;101437.38;5097616;27;45591;-71
2023/08/06 07:37:21;;;;;;;;;3.00;2.00;;;;;16.82;80.12;101445.28;5101018;27;45531;-73
2023/08/06 07:39:47;;;;;;;;;2.00;0.00;;;;;16.91;82.96;101451.88;5084277;27;46033;-73
2023/08/06 07:42:12;;;;;;;;;1.00;1.00;;;;;16.84;80.38;101429.16;5096028;27;46734;-72
2023/08/06 07:44:37;;;;;;;;;2.00;1.00;;;;;16.91;82.89;101428.69;5084672;27;45383;-73
2023/08/06 07:47:03;;;;;;;;;1.67;1.67;;;;;17.02;83.00;101433.31;5095142;27;45233;-72
2023/08/06 07:49:28;;;;;;;;;1.00;1.00;;;;;16.97;77.68;101430.97;5098138;27;45567;-73
2023/08/06 07:51:53;;;;;;;;;1.00;1.00;;;;;17.15;80.13;101445.81;5065137;28;45565;-72
2023/08/06 07:54:19;;;;;;;;;2.00;0.67;;;;;17.24;77.06;101451.53;5094953;27;46453;-73
2023/08/06 07:56:44;;;;;;;;;1.00;1.00;;;;;17.31;74.74;101464.38;5082359;27;45760;-73
2023/08/06 07:59:10;;;;;;;;;1.67;1.67;;;;;17.27;75.00;101460.22;5096382;27;45442;-73
2023/08/06 08:01:35;;;;;;;;;2.67;2.67;;;;;17.37;70.68;101461.34;5070328;27;45299;-73
2023/08/06 08:04:00;;;;;;;;;1.00;1.00;;;;;17.41;74.34;101459.31;5081662;27;45240;-73
2023/08/06 08:06:26;;;;;;;;;2.00;2.00;;;;;17.60;75.99;101468.72;5081716;27;45467;-73
2023/08/06 08:08:51;;;;;;;;;1.33;0.33;;;;;17.64;73.82;101475.59;5094393;27;48377;-74
2023/08/06 08:11:19;;;;;;;;;2.33;2.00;;;;;17.66;74.34;101463.00;5073566;27;45403;-74
2023/08/06 08:13:44;;;;;;;;;2.67;2.67;;;;;17.64;76.42;101478.28;5084709;27;45368;-74
2023/08/06 08:16:10;;;;;;;;;2.67;2.00;;;;;17.58;75.19;101484.03;5088775;27;45719;-73
2023/08/06 08:18:35;;;;;;;;;2.67;2.00;;;;;17.45;69.96;101468.84;5077702;27;46014;-73
2023/08/06 08:21:00;;;;;;;;;1.00;1.00;;;;;17.60;70.44;101479.44;5067594;28;56712;-73
2023/08/06 08:23:26;;;;;;;;;1.00;1.00;;;;;17.66;69.24;101475.53;5090701;27;45444;-73
2023/08/06 08:25:51;;;;;;;;;1.33;1.33;;;;;17.66;71.13;101464.81;5086245;27;45455;-73
2023/08/06 08:28:16;;;;;;;;;2.00;1.00;;;;;17.89;72.09;101485.56;5095829;27;46092;-73
2023/08/06 08:30:42;;;;;;;;;3.00;1.67;;;;;18.02;66.54;101474.88;5095722;27;45304;-72
2023/08/06 08:33:07;;;;;;;;;2.00;1.00;;;;;18.15;69.53;101491.84;5076752;27;45248;-73
2023/08/06 08:35:33;;;;;;;;;2.00;1.00;;;;;18.32;67.14;101490.69;5089476;27;45561;-73
2023/08/06 08:37:59;;;;;;;;;2.00;2.00;;;;;18.47;69.01;101487.81;5091587;27;45597;-73
2023/08/06 08:40:31;;;;;;;;;3.00;1.33;;;;;18.70;67.81;101488.91;5063978;28;50790;-73
2023/08/06 08:42:58;;;;;;;;;0.33;0.33;;;;;18.82;65.33;101511.31;5080227;28;45394;-73
2023/08/06 08:45:28;;;;;;;;;4.00;2.33;;;;;18.69;68.90;101509.50;5080611;27;45428;-73
2023/08/06 08:47:53;;;;;;;;;3.33;3.33;;;;;18.74;69.89;101511.88;5080789;27;46257;-73
2023/08/06 08:50:20;;;;;;;;;2.00;2.00;;;;;18.59;68.52;101494.16;5080747;27;46521;-73
2023/08/06 08:52:45;;;;;;;;;2.33;2.00;;;;;18.53;67.59;101513.34;5068114;28;45363;-73
2023/08/06 08:55:13;;;;;;;;;2.67;1.33;;;;;18.63;63.40;101509.06;5093652;27;45342;-73
2023/08/06 08:57:39;;;;;;;;;2.00;2.00;;;;;18.87;65.72;101511.84;5089440;27;46309;-73
2023/08/06 09:00:05;;;;;;;;;2.00;2.00;;;;;19.03;63.89;101513.34;5087612;27;45188;-73
2023/08/06 09:02:32;;;;;;;;;1.67;1.33;;;;;19.19;61.04;101511.28;5100621;27;45306;-73
2023/08/06 09:05:03;;;;;;;;;1.67;1.67;;;;;19.34;64.78;101514.66;5085480;27;45292;-73
2023/08/06 09:07:46;;;;;;;;;1.00;1.00;;;;;19.47;63.73;101525.44;5093191;27;46406;-73
2023/08/06 09:10:17;;;;;;;;;2.00;2.00;;;;;19.37;62.01;101517.13;5080211;27;45288;-74
2023/08/06 09:12:44;;;;;;;;;0.00;0.00;;;;;19.47;60.73;101534.31;5089961;27;45416;-73
2023/08/06 09:15:09;;;;;;;;;1.67;0.67;;;;;19.65;60.60;101532.13;5080709;27;45394;-73
2023/08/06 09:17:36;;;;;;;;;1.00;1.00;;;;;19.73;61.95;101527.88;5098557;27;46294;-73
2023/08/06 09:20:10;;;;;;;;;1.67;1.67;;;;;19.76;58.80;101541.09;5078840;27;45363;-72
2023/08/06 09:22:35;;;;;;;;;3.67;1.67;;;;;19.89;58.63;101535.69;5091413;27;45347;-73
2023/08/06 09:25:00;;;;;;;;;1.00;1.00;;;;;19.99;57.87;101535.88;5097892;27;45398;-73
2023/08/06 09:27:26;;;;;;;;;0.67;0.67;;;;;19.92;60.98;101548.88;5083743;27;45374;-72
2023/08/06 09:29:51;;;;;;;;;0.00;0.00;;;;;19.64;60.12;101543.81;5096450;27;53040;-72
2023/08/06 09:32:17;;;;;;;;;3.33;0.67;;;;;19.43;59.96;101551.63;5093591;27;45552;-73
2023/08/06 09:34:43;;;;;;;;;3.33;1.67;;;;;19.41;62.21;101542.81;5100714;27;45329;-73
2023/08/06 09:37:10;;;;;;;;;1.33;1.33;;;;;19.49;61.72;101553.00;5089581;27;45327;-73
2023/08/06 09:39:36;;;;;;;;;2.33;1.00;;;;;19.71;59.49;101556.69;5093082;27;45525;-72
2023/08/06 09:42:03;;;;;;;;;0.00;0.00;;;;;19.75;60.11;101542.06;5081431;27;45320;-72
2023/08/06 09:44:30;;;;;;;;;1.00;1.00;;;;;19.99;59.31;101560.84;5084581;27;45379;-73
2023/08/06 09:46:58;;;;;;;;;0.67;0.67;;;;;20.12;60.08;101552.78;5073938;27;45526;-73
2023/08/06 09:49:28;;;;;;;;;1.67;1.00;;;;;19.97;58.88;101540.47;5097838;27;45271;-73
2023/08/06 09:51:55;;;;;;;;;3.67;2.33;;;;;20.19;55.77;101544.13;5083670;27;45435;-73
2023/08/06 09:54:24;;;;;;;;;1.67;1.00;;;;;20.15;57.21;101518.47;5078168;28;45489;-73
2023/08/06 09:56:50;;;;;;;;;3.00;0.67;;;;;20.15;55.83;101531.91;5061664;27;45605;-72
2023/08/06 09:59:17;;;;;;;;;1.67;0.67;;;;;20.06;59.40;101542.47;5081206;27;45298;-73
2023/08/06 10:01:43;;;;;;;;;1.33;1.33;;;;;19.98;58.92;101551.09;5080997;27;45588;-73
2023/08/06 10:04:09;;;;;;;;;1.00;1.00;;;;;19.83;60.05;101543.34;5099580;27;45517;-73
2023/08/06 10:06:38;;;;;;;;;1.33;0.67;;;;;20.01;60.90;101552.69;5098009;27;45453;-73
2023/08/06 10:09:04;;;;;;;;;0.67;0.67;;;;;20.23;57.32;101542.91;5090154;27;45333;-73
2023/08/06 10:11:30;;;;;;;;;1.67;1.67;;;;;20.57;58.18;101549.31;5075247;27;45343;-73
2023/08/06 10:14:22;;;;;;;;;1.00;1.00;;;;;20.74;55.27;101553.38;5081082;27;46723;-73
2023/08/06 10:16:48;;;;;;;;;1.00;1.00;;;;;20.52;54.92;101554.16;5078019;27;45325;-73
2023/08/06 10:19:16;;;;;;;;;1.67;1.00;;;;;20.21;55.34;101561.00;5081391;27;45467;-73
2023/08/06 10:22:02;;;;;;;;;0.00;0.00;;;;;20.20;55.48;101561.94;5086860;27;45387;-73
2023/08/06 10:24:27;;;;;;;;;1.00;1.00;;;;;20.40;55.77;101567.69;5081182;27;45687;-72
2023/08/06 10:26:58;;;;;;;;;3.00;1.00;;;;;20.56;57.66;101542.19;5080407;27;51452;-72
2023/08/06 10:29:37;;;;;;;;;1.00;0.00;;;;;20.64;52.44;101565.81;5091206;27;45350;-73
2023/08/06 10:32:04;;;;;;;;;1.00;1.00;;;;;20.78;54.85;101549.44;5098564;27;45500;-72
2023/08/06 10:34:56;;;;;;;;;1.67;0.33;;;;;20.69;53.39;101563.63;5073606;27;45518;-72
2023/08/06 10:37:23;;;;;;;;;2.67;1.00;;;;;20.57;56.63;101573.50;5079892;27;45426;-75
2023/08/06 10:39:50;;;;;;;;;1.00;0.33;;;;;20.53;55.49;101563.94;5071442;27;45489;-74
2023/08/06 10:42:27;;;;;;;;;0.00;0.00;;;;;20.45;54.77;101576.25;5069434;27;45649;-74
2023/08/06 10:45:15;;;;;;;;;1.00;1.00;;;;;20.60;56.38;101572.41;5086814;27;45269;-74
2023/08/06 10:47:41;;;;;;;;;3.00;1.00;;;;;20.90;56.90;101556.59;5098159;27;45413;-74
2023/08/06 10:50:08;;;;;;;;;1.00;0.67;;;;;21.05;53.62;101574.19;5084644;27;45344;-74
2023/08/06 10:52:34;;;;;;;;;1.67;0.00;;;;;21.06;52.89;101578.59;5094585;27;45574;-75
2023/08/06 10:54:59;;;;;;;;;0.00;0.00;;;;;20.94;51.94;101574.16;5084278;27;45330;-75
2023/08/06 10:57:25;;;;;;;;;0.67;0.67;;;;;20.84;55.95;101575.03;5085426;27;45897;-74
2023/08/06 10:59:50;;;;;;;;;0.00;0.00;;;;;20.81;54.28;101584.16;5080112;27;45460;-74
2023/08/06 11:02:16;;;;;;;;;2.00;0.00;;;;;20.99;56.92;101574.69;5083891;27;45438;-74
2023/08/06 11:04:42;;;;;;;;;0.00;0.00;;;;;21.22;53.41;101563.00;5086352;27;45577;-73
2023/08/06 11:07:07;;;;;;;;;0.00;0.00;;;;;21.35;54.38;101583.53;5083672;27;53732;-74
2023/08/06 11:09:32;;;;;;;;;0.00;0.00;;;;;21.13;52.54;101562.88;5072733;27;45386;-74
2023/08/06 11:11:58;;;;;;;;;0.00;0.00;;;;;21.00;53.42;101576.41;5102180;27;45452;-74
2023/08/06 11:14:23;;;;;;;;;0.00;0.00;;;;;20.82;53.19;101568.91;5091272;27;46430;-75
2023/08/06 11:16:50;;;;;;;;;2.33;0.00;;;;;20.79;55.89;101580.75;5089645;27;45256;-74